Time;durP1;ratioP1;P1;durP2;ratioP2;P2;SDS_P1;SDS_P2;PMS_P1;PMS_P2;Temp;Humidity;BMP_temperature;BMP_pressure;BME280_temperature;BME280_humidity;BME280_pressure;Samples;Min_cycle;Max_cycle;Signal;HPM_P1;HPM_P2
2023/03/08 00:00:45;;;;;;;7.07;3.55;;;;;;;;;;5035855;28;20132;-78
2023/03/08 00:03:15;;;;;;;9.25;4.10;;;;;;;;;;5052311;28;20037;-78
2023/03/08 00:05:41;;;;;;;8.60;4.43;;;;;;;;;;5050323;28;20041;-78
2023/03/08 00:08:08;;;;;;;8.55;4.50;;;;;;;;;;5049927;28;20061;-78
2023/03/08 00:10:35;;;;;;;8.73;5.00;;;;;;;;;;5052964;28;20048;-78
2023/03/08 00:13:02;;;;;;;9.13;4.68;;;;;;;;;;5039035;28;20124;-80
2023/03/08 00:15:28;;;;;;;8.27;4.88;;;;;;;;;;5059611;28;20045;-78
2023/03/08 00:17:55;;;;;;;8.02;4.65;;;;;;;;;;5058768;28;20131;-79
2023/03/08 00:20:21;;;;;;;7.25;4.50;;;;;;;;;;5036204;28;20098;-78
2023/03/08 00:22:51;;;;;;;7.63;4.50;;;;;;;;;;5055811;28;20555;-79
2023/03/08 00:25:17;;;;;;;8.63;4.78;;;;;;;;;;5053286;28;20068;-79
2023/03/08 00:27:44;;;;;;;7.57;4.57;;;;;;;;;;5053749;28;20055;-78
2023/03/08 00:30:11;;;;;;;7.57;4.57;;;;;;;;;;5054903;28;20044;-78
2023/03/08 00:32:37;;;;;;;7.78;4.55;;;;;;;;;;5083608;28;20064;-79
2023/03/08 00:35:04;;;;;;;7.38;4.45;;;;;;;;;;5050479;28;20388;-78
2023/03/08 00:37:30;;;;;;;8.23;4.70;;;;;;;;;;5050317;28;20472;-80
2023/03/08 00:39:57;;;;;;;8.45;4.72;;;;;;;;;;5050260;28;20126;-79
2023/03/08 00:42:24;;;;;;;7.95;4.68;;;;;;;;;;5051956;28;20059;-78
2023/03/08 00:44:53;;;;;;;10.65;4.93;;;;;;;;;;5083167;28;20063;-79
2023/03/08 00:47:20;;;;;;;8.13;4.40;;;;;;;;;;5051445;28;20041;-77
2023/03/08 00:49:46;;;;;;;8.50;4.38;;;;;;;;;;5065289;28;20052;-77
2023/03/08 00:52:13;;;;;;;7.60;4.60;;;;;;;;;;5048233;28;20079;-78
2023/03/08 00:54:39;;;;;;;8.02;4.90;;;;;;;;;;5048552;28;20048;-78
2023/03/08 00:57:06;;;;;;;8.65;5.28;;;;;;;;;;5047914;28;20087;-78
2023/03/08 00:59:32;;;;;;;8.98;5.38;;;;;;;;;;5051881;28;20048;-78
2023/03/08 01:01:59;;;;;;;11.02;5.10;;;;;;;;;;5051807;28;20476;-78
2023/03/08 01:04:26;;;;;;;8.90;4.95;;;;;;;;;;5036855;28;20049;-79
2023/03/08 01:06:52;;;;;;;9.38;5.05;;;;;;;;;;5056401;28;20052;-78
2023/03/08 01:09:19;;;;;;;8.93;4.97;;;;;;;;;;5049978;28;20052;-80
2023/03/08 01:11:45;;;;;;;10.20;5.13;;;;;;;;;;5030474;28;20524;-78
2023/03/08 01:14:14;;;;;;;9.65;5.03;;;;;;;;;;5050663;28;20045;-78
2023/03/08 01:16:41;;;;;;;8.93;5.20;;;;;;;;;;5048803;28;20339;-78
2023/03/08 01:19:08;;;;;;;9.32;5.00;;;;;;;;;;5031771;28;20106;-79
2023/03/08 01:21:34;;;;;;;9.88;5.82;;;;;;;;;;5035374;28;20044;-79
2023/03/08 01:24:01;;;;;;;11.88;5.82;;;;;;;;;;5034601;28;20044;-79
2023/03/08 01:26:28;;;;;;;10.75;6.00;;;;;;;;;;5050991;28;20051;-78
2023/03/08 01:28:55;;;;;;;9.23;5.28;;;;;;;;;;5031247;28;20144;-78
2023/03/08 01:31:27;;;;;;;10.80;5.70;;;;;;;;;;5046963;28;20057;-79
2023/03/08 01:33:54;;;;;;;9.85;5.50;;;;;;;;;;5034827;28;20061;-79
2023/03/08 01:36:22;;;;;;;8.85;5.30;;;;;;;;;;5050760;28;20556;-79
2023/03/08 01:38:48;;;;;;;9.50;5.28;;;;;;;;;;5051418;28;20037;-79
2023/03/08 01:41:17;;;;;;;9.50;5.60;;;;;;;;;;5051765;28;20066;-79
2023/03/08 01:43:44;;;;;;;9.85;5.28;;;;;;;;;;5090624;28;20167;-79
2023/03/08 01:46:29;;;;;;;8.75;5.10;;;;;;;;;;5055975;28;20036;-77
2023/03/08 01:49:06;;;;;;;12.95;5.95;;;;;;;;;;5064124;28;20051;-79
2023/03/08 01:51:33;;;;;;;11.38;5.88;;;;;;;;;;5055173;28;20093;-79
2023/03/08 01:54:02;;;;;;;12.07;6.13;;;;;;;;;;5053991;28;20033;-79
2023/03/08 01:56:28;;;;;;;11.02;6.00;;;;;;;;;;5085645;28;20045;-79
2023/03/08 01:58:56;;;;;;;9.23;5.50;;;;;;;;;;5084554;28;20417;-78
2023/03/08 02:01:23;;;;;;;10.13;5.35;;;;;;;;;;5050593;28;20033;-79
2023/03/08 02:03:51;;;;;;;10.45;5.80;;;;;;;;;;5046946;28;20045;-78
2023/03/08 02:06:19;;;;;;;8.57;4.90;;;;;;;;;;5084589;28;20033;-79
2023/03/08 02:08:47;;;;;;;11.48;6.15;;;;;;;;;;5042693;28;20048;-79
2023/03/08 02:11:14;;;;;;;11.88;6.05;;;;;;;;;;5034848;28;20086;-79
2023/03/08 02:13:41;;;;;;;10.75;5.78;;;;;;;;;;5069982;28;20044;-80
2023/03/08 02:16:11;;;;;;;12.50;6.20;;;;;;;;;;5038225;28;20041;-78
2023/03/08 02:18:47;;;;;;;12.07;5.78;;;;;;;;;;5054734;28;20033;-79
2023/03/08 02:21:17;;;;;;;10.60;5.63;;;;;;;;;;5036696;28;20501;-80
2023/03/08 02:23:43;;;;;;;11.52;6.18;;;;;;;;;;5055246;28;20053;-79
2023/03/08 02:26:09;;;;;;;10.55;5.95;;;;;;;;;;5053248;28;20107;-77
2023/03/08 02:28:36;;;;;;;10.35;6.13;;;;;;;;;;5036904;28;20410;-78
2023/03/08 02:31:03;;;;;;;11.18;6.63;;;;;;;;;;5055109;28;20436;-79
2023/03/08 02:33:31;;;;;;;13.18;6.82;;;;;;;;;;5057570;28;20055;-79
2023/03/08 02:35:57;;;;;;;11.85;6.57;;;;;;;;;;5049394;28;20064;-78
2023/03/08 02:38:25;;;;;;;10.75;6.10;;;;;;;;;;5047010;28;20106;-78
2023/03/08 02:40:52;;;;;;;11.73;6.68;;;;;;;;;;5045239;28;20122;-79
2023/03/08 02:43:18;;;;;;;16.67;7.00;;;;;;;;;;5046759;28;20049;-77
2023/03/08 02:45:45;;;;;;;10.57;6.30;;;;;;;;;;5049568;28;20045;-79
2023/03/08 02:48:11;;;;;;;12.93;7.57;;;;;;;;;;5048467;28;20040;-78
2023/03/08 02:50:41;;;;;;;12.93;6.57;;;;;;;;;;5036937;28;20070;-79
2023/03/08 02:53:07;;;;;;;12.43;6.93;;;;;;;;;;5039538;28;20049;-79
2023/03/08 02:55:35;;;;;;;12.32;7.05;;;;;;;;;;5038268;28;20051;-79
2023/03/08 02:58:07;;;;;;;12.18;7.20;;;;;;;;;;5037560;28;20049;-81
2023/03/08 03:00:35;;;;;;;12.55;7.30;;;;;;;;;;5038667;28;20057;-79
2023/03/08 03:03:02;;;;;;;13.13;7.50;;;;;;;;;;5038441;28;20178;-79
2023/03/08 03:05:29;;;;;;;13.80;7.55;;;;;;;;;;5042379;28;20049;-79
2023/03/08 03:07:58;;;;;;;15.25;7.90;;;;;;;;;;5035817;28;20132;-79
2023/03/08 03:10:26;;;;;;;14.05;7.65;;;;;;;;;;5033140;28;20042;-79
2023/03/08 03:12:54;;;;;;;14.25;7.97;;;;;;;;;;5032880;28;20065;-79
2023/03/08 03:15:24;;;;;;;15.13;8.35;;;;;;;;;;5034089;28;20048;-78
2023/03/08 03:17:55;;;;;;;14.30;7.53;;;;;;;;;;5020261;28;20099;-79
2023/03/08 03:20:22;;;;;;;14.95;7.90;;;;;;;;;;5038705;28;20576;-78
2023/03/08 03:22:48;;;;;;;16.17;7.47;;;;;;;;;;5038517;28;20109;-78
2023/03/08 03:25:16;;;;;;;14.82;7.93;;;;;;;;;;5020613;28;20075;-79
2023/03/08 03:27:45;;;;;;;14.82;7.85;;;;;;;;;;5020110;28;20042;-79
2023/03/08 03:30:12;;;;;;;14.82;7.90;;;;;;;;;;5071047;28;21130;-79
2023/03/08 03:32:41;;;;;;;15.98;8.48;;;;;;;;;;5070205;28;20076;-79
2023/03/08 03:35:09;;;;;;;16.00;8.15;;;;;;;;;;5058518;28;20390;-79
2023/03/08 03:37:35;;;;;;;14.15;7.78;;;;;;;;;;5090819;28;20113;-79
2023/03/08 03:40:03;;;;;;;16.45;8.15;;;;;;;;;;5055940;28;20115;-79
2023/03/08 03:42:30;;;;;;;15.75;8.50;;;;;;;;;;5090887;28;20037;-79
2023/03/08 03:45:10;;;;;;;12.50;6.53;;;;;;;;;;5057121;28;20053;-79
2023/03/08 03:47:37;;;;;;;11.82;6.55;;;;;;;;;;5057430;28;20033;-78
2023/03/08 03:50:07;;;;;;;14.63;7.20;;;;;;;;;;5080704;28;20045;-78
2023/03/08 03:52:47;;;;;;;13.60;7.25;;;;;;;;;;5032274;28;20041;-78
2023/03/08 03:55:13;;;;;;;15.70;7.43;;;;;;;;;;5063974;28;20041;-78
2023/03/08 03:57:41;;;;;;;13.25;7.00;;;;;;;;;;5035467;28;20044;-78
2023/03/08 04:00:11;;;;;;;13.95;7.05;;;;;;;;;;5039818;28;20061;-79
2023/03/08 04:02:46;;;;;;;8.93;4.83;;;;;;;;;;5038754;28;20060;-78
2023/03/08 04:05:16;;;;;;;12.98;6.93;;;;;;;;;;5071701;28;20740;-79
2023/03/08 04:07:47;;;;;;;12.88;7.25;;;;;;;;;;5037175;28;20045;-79
2023/03/08 04:10:13;;;;;;;12.75;6.60;;;;;;;;;;5069597;28;20049;-78
2023/03/08 04:12:41;;;;;;;12.70;6.10;;;;;;;;;;5037363;28;20060;-79
2023/03/08 04:15:08;;;;;;;10.52;6.03;;;;;;;;;;5056325;28;20075;-78
2023/03/08 04:17:35;;;;;;;8.80;5.07;;;;;;;;;;5069888;28;20040;-79
2023/03/08 04:20:03;;;;;;;10.43;5.63;;;;;;;;;;5053708;28;20049;-78
2023/03/08 04:22:33;;;;;;;12.18;6.10;;;;;;;;;;5035205;28;20055;-78
2023/03/08 04:25:11;;;;;;;11.27;5.60;;;;;;;;;;5069957;28;20045;-80
2023/03/08 04:27:43;;;;;;;11.38;5.90;;;;;;;;;;5079815;28;20567;-78
2023/03/08 04:30:11;;;;;;;8.85;5.07;;;;;;;;;;5053264;28;20047;-79
2023/03/08 04:32:38;;;;;;;12.43;5.53;;;;;;;;;;5069027;28;20071;-79
2023/03/08 04:35:06;;;;;;;13.10;6.25;;;;;;;;;;5085250;28;20065;-79
2023/03/08 04:37:36;;;;;;;12.35;6.07;;;;;;;;;;5052529;28;20040;-79
2023/03/08 04:40:08;;;;;;;13.82;6.60;;;;;;;;;;5051290;28;20047;-79
2023/03/08 04:42:40;;;;;;;13.90;7.30;;;;;;;;;;5051764;28;20150;-79
2023/03/08 04:45:09;;;;;;;15.02;6.47;;;;;;;;;;5053338;28;20041;-79
2023/03/08 04:47:36;;;;;;;12.10;6.55;;;;;;;;;;5069803;28;20037;-79
2023/03/08 04:50:02;;;;;;;11.80;5.70;;;;;;;;;;5056131;28;20047;-79
2023/03/08 04:52:30;;;;;;;11.98;5.85;;;;;;;;;;5037600;28;20059;-79
2023/03/08 04:54:57;;;;;;;11.38;6.20;;;;;;;;;;5054505;28;20044;-79
2023/03/08 04:57:28;;;;;;;10.02;5.60;;;;;;;;;;5037090;28;20052;-78
2023/03/08 04:59:57;;;;;;;12.27;5.10;;;;;;;;;;5031903;28;20128;-78
2023/03/08 05:02:24;;;;;;;11.63;4.82;;;;;;;;;;5031158;28;20443;-77
2023/03/08 05:04:51;;;;;;;13.68;5.90;;;;;;;;;;5032896;28;20055;-78
2023/03/08 05:07:18;;;;;;;9.85;4.70;;;;;;;;;;5033298;28;20036;-77
2023/03/08 05:09:47;;;;;;;7.47;4.47;;;;;;;;;;5033803;28;20709;-79
2023/03/08 05:12:13;;;;;;;11.00;5.32;;;;;;;;;;5054988;28;20102;-79
2023/03/08 05:14:48;;;;;;;13.17;6.07;;;;;;;;;;5035275;28;20045;-79
2023/03/08 05:17:14;;;;;;;12.50;6.13;;;;;;;;;;5052361;28;20045;-79
2023/03/08 05:19:41;;;;;;;15.40;6.43;;;;;;;;;;5052238;28;20124;-78
2023/03/08 05:22:10;;;;;;;10.13;5.60;;;;;;;;;;5034469;28;20090;-79
2023/03/08 05:24:42;;;;;;;13.65;5.95;;;;;;;;;;5034812;28;20052;-78
2023/03/08 05:27:11;;;;;;;10.75;5.63;;;;;;;;;;5030306;28;20037;-78
2023/03/08 05:29:38;;;;;;;12.00;5.63;;;;;;;;;;5038596;28;20043;-78
2023/03/08 05:32:05;;;;;;;10.70;5.50;;;;;;;;;;5031941;28;20599;-77
2023/03/08 05:34:32;;;;;;;11.90;6.15;;;;;;;;;;5030642;28;20037;-80
2023/03/08 05:37:01;;;;;;;14.13;5.85;;;;;;;;;;5064433;28;20076;-79
2023/03/08 05:39:29;;;;;;;11.27;6.20;;;;;;;;;;5064116;28;20065;-78
2023/03/08 05:42:06;;;;;;;10.98;6.13;;;;;;;;;;5028611;28;20044;-82
2023/03/08 05:44:37;;;;;;;16.23;7.97;;;;;;;;;;5040006;28;20053;-79
2023/03/08 05:47:05;;;;;;;16.50;7.82;;;;;;;;;;5028578;28;20417;-78
2023/03/08 05:49:32;;;;;;;30.50;10.05;;;;;;;;;;5050515;28;20052;-78
2023/03/08 05:51:59;;;;;;;21.85;9.73;;;;;;;;;;5018986;28;20170;-78
2023/03/08 05:54:29;;;;;;;33.78;14.15;;;;;;;;;;5019235;28;21133;-79
2023/03/08 05:57:00;;;;;;;26.75;11.95;;;;;;;;;;5029198;28;20172;-78
2023/03/08 05:59:28;;;;;;;22.85;11.15;;;;;;;;;;5030380;28;20053;-79
2023/03/08 06:01:58;;;;;;;21.80;9.27;;;;;;;;;;5031344;28;20065;-78
2023/03/08 06:04:47;;;;;;;20.40;8.73;;;;;;;;;;5028015;28;20057;-79
2023/03/08 06:07:17;;;;;;;20.92;9.18;;;;;;;;;;5030412;28;20092;-78
2023/03/08 06:09:50;;;;;;;17.58;9.00;;;;;;;;;;5029942;28;20091;-78
2023/03/08 06:12:17;;;;;;;17.60;9.20;;;;;;;;;;5028255;28;20061;-78
2023/03/08 06:14:47;;;;;;;17.30;8.75;;;;;;;;;;5027832;28;20042;-77
2023/03/08 06:17:16;;;;;;;18.60;8.60;;;;;;;;;;5027611;28;20076;-78
2023/03/08 06:19:46;;;;;;;15.45;8.05;;;;;;;;;;5036071;28;20055;-80
2023/03/08 06:22:14;;;;;;;20.67;8.52;;;;;;;;;;5025882;28;20041;-78
2023/03/08 06:24:41;;;;;;;16.52;8.63;;;;;;;;;;5010373;28;20036;-77
2023/03/08 06:27:08;;;;;;;17.52;8.88;;;;;;;;;;5028356;28;20141;-77
2023/03/08 06:29:37;;;;;;;16.75;8.93;;;;;;;;;;5041905;28;20041;-78
2023/03/08 06:32:04;;;;;;;17.52;9.20;;;;;;;;;;5027706;28;20068;-78
2023/03/08 06:34:31;;;;;;;19.08;9.57;;;;;;;;;;5028364;28;20041;-78
2023/03/08 06:37:00;;;;;;;21.90;9.82;;;;;;;;;;5026403;28;20048;-78
2023/03/08 06:39:30;;;;;;;19.98;9.70;;;;;;;;;;5027137;28;20529;-78
2023/03/08 06:42:11;;;;;;;18.27;9.43;;;;;;;;;;5031296;28;20523;-78
2023/03/08 06:44:38;;;;;;;20.33;9.43;;;;;;;;;;5007330;28;20040;-78
2023/03/08 06:47:05;;;;;;;19.73;9.80;;;;;;;;;;5011739;28;20104;-78
2023/03/08 06:49:32;;;;;;;18.40;9.73;;;;;;;;;;5029316;28;20113;-78
2023/03/08 06:51:59;;;;;;;24.13;10.07;;;;;;;;;;5029205;28;20506;-78
2023/03/08 06:54:26;;;;;;;22.40;10.38;;;;;;;;;;5025179;28;20517;-78
2023/03/08 06:56:53;;;;;;;24.85;10.00;;;;;;;;;;5026895;28;20048;-78
2023/03/08 06:59:19;;;;;;;20.13;9.90;;;;;;;;;;5028099;28;20068;-78
2023/03/08 07:01:46;;;;;;;19.75;8.45;;;;;;;;;;5031947;28;20141;-78
2023/03/08 07:04:13;;;;;;;18.30;7.10;;;;;;;;;;5031689;28;20519;-78
2023/03/08 07:06:39;;;;;;;13.05;6.80;;;;;;;;;;5037227;28;20076;-78
2023/03/08 07:09:06;;;;;;;16.13;6.97;;;;;;;;;;5033220;28;20422;-79
2023/03/08 07:11:33;;;;;;;16.38;6.90;;;;;;;;;;5033686;28;20054;-77
2023/03/08 07:13:59;;;;;;;13.63;6.78;;;;;;;;;;5031895;28;20130;-78
2023/03/08 07:16:26;;;;;;;16.25;6.60;;;;;;;;;;5033118;28;20080;-79
2023/03/08 07:18:52;;;;;;;10.50;5.10;;;;;;;;;;5034008;28;20492;-78
2023/03/08 07:21:23;;;;;;;7.68;4.57;;;;;;;;;;5031526;28;20045;-76
2023/03/08 07:23:50;;;;;;;9.88;4.80;;;;;;;;;;5033391;28;20560;-79
2023/03/08 07:26:16;;;;;;;10.13;4.97;;;;;;;;;;5032815;28;20045;-79
2023/03/08 07:28:43;;;;;;;10.60;5.28;;;;;;;;;;5033242;28;20128;-79
2023/03/08 07:31:10;;;;;;;10.48;5.72;;;;;;;;;;5032980;28;20041;-79
2023/03/08 07:33:37;;;;;;;10.13;5.15;;;;;;;;;;5033977;28;20126;-79
2023/03/08 07:36:04;;;;;;;8.25;5.10;;;;;;;;;;5036678;28;20113;-80
2023/03/08 07:38:30;;;;;;;9.43;4.60;;;;;;;;;;5032233;28;20049;-79
2023/03/08 07:40:57;;;;;;;11.57;4.80;;;;;;;;;;5064846;28;20057;-79
2023/03/08 07:43:23;;;;;;;7.40;4.50;;;;;;;;;;5034094;28;20041;-79
2023/03/08 07:46:01;;;;;;;12.35;4.65;;;;;;;;;;5032070;28;20061;-79
2023/03/08 07:48:28;;;;;;;11.80;4.43;;;;;;;;;;5032204;28;20060;-79
2023/03/08 07:50:59;;;;;;;11.43;4.70;;;;;;;;;;5034316;28;20480;-78
2023/03/08 07:53:25;;;;;;;7.28;4.38;;;;;;;;;;5031580;28;20061;-79
2023/03/08 07:55:52;;;;;;;9.13;5.03;;;;;;;;;;5034065;28;20057;-79
2023/03/08 07:58:18;;;;;;;9.73;4.20;;;;;;;;;;5032050;28;20038;-78
2023/03/08 08:00:45;;;;;;;8.90;4.25;;;;;;;;;;5034316;28;20057;-78
2023/03/08 08:03:11;;;;;;;11.27;4.03;;;;;;;;;;5037279;28;20052;-78
2023/03/08 08:05:38;;;;;;;9.00;4.20;;;;;;;;;;5037261;28;20227;-78
2023/03/08 08:08:04;;;;;;;14.48;4.82;;;;;;;;;;5034893;28;20053;-78
2023/03/08 08:10:31;;;;;;;15.32;4.88;;;;;;;;;;5035241;28;20049;-79
2023/03/08 08:12:58;;;;;;;19.73;6.38;;;;;;;;;;5033362;28;20053;-79
2023/03/08 08:15:24;;;;;;;26.50;9.48;;;;;;;;;;5034426;28;20049;-79
2023/03/08 08:17:51;;;;;;;29.25;10.55;;;;;;;;;;5033597;28;20069;-79
2023/03/08 08:20:18;;;;;;;10.68;4.00;;;;;;;;;;5053164;28;20055;-78
2023/03/08 08:22:44;;;;;;;7.38;3.40;;;;;;;;;;5048853;28;20068;-78
2023/03/08 08:25:11;;;;;;;29.40;9.43;;;;;;;;;;5048893;28;20408;-78
2023/03/08 08:27:37;;;;;;;14.32;4.97;;;;;;;;;;5048474;28;20041;-78
2023/03/08 08:30:36;;;;;;;28.05;8.05;;;;;;;;;;5031528;28;20045;-78
2023/03/08 08:33:03;;;;;;;130.98;32.65;;;;;;;;;;5047006;28;20065;-78
2023/03/08 08:35:29;;;;;;;133.35;34.75;;;;;;;;;;5029661;28;20520;-77
2023/03/08 08:38:08;;;;;;;81.75;23.15;;;;;;;;;;5011079;28;20456;-78
2023/03/08 08:40:35;;;;;;;45.13;12.50;;;;;;;;;;5027606;28;20518;-78
2023/03/08 08:43:02;;;;;;;33.08;9.82;;;;;;;;;;5028592;28;20152;-78
2023/03/08 08:45:28;;;;;;;45.63;12.95;;;;;;;;;;5029163;28;20078;-78
2023/03/08 08:47:55;;;;;;;40.35;11.60;;;;;;;;;;5028453;28;20423;-78
2023/03/08 08:50:21;;;;;;;47.63;12.85;;;;;;;;;;5028499;28;20045;-78
2023/03/08 08:52:48;;;;;;;36.25;11.52;;;;;;;;;;5029383;28;20052;-78
2023/03/08 08:55:14;;;;;;;29.38;11.13;;;;;;;;;;5028164;28;20072;-78
2023/03/08 08:57:41;;;;;;;18.70;7.05;;;;;;;;;;5031034;28;20426;-78
2023/03/08 09:00:08;;;;;;;14.95;6.47;;;;;;;;;;5031963;28;20052;-78
2023/03/08 09:02:35;;;;;;;13.45;5.28;;;;;;;;;;5031047;28;20561;-78
2023/03/08 09:05:02;;;;;;;12.02;5.50;;;;;;;;;;5032803;28;20041;-78
2023/03/08 09:07:29;;;;;;;13.63;4.80;;;;;;;;;;5032734;28;20045;-78
2023/03/08 09:09:56;;;;;;;11.63;4.93;;;;;;;;;;5029755;28;20084;-78
2023/03/08 09:12:28;;;;;;;8.60;5.03;;;;;;;;;;5031171;28;20049;-76
2023/03/08 09:14:54;;;;;;;10.45;5.05;;;;;;;;;;5051565;28;20133;-79
2023/03/08 09:17:21;;;;;;;9.38;5.10;;;;;;;;;;5050338;28;20381;-78
2023/03/08 09:19:47;;;;;;;8.48;4.25;;;;;;;;;;5035816;28;20112;-80
2023/03/08 09:22:14;;;;;;;8.70;4.38;;;;;;;;;;5036665;28;20296;-80
2023/03/08 09:24:40;;;;;;;9.30;5.50;;;;;;;;;;5054158;28;20133;-80
2023/03/08 09:27:07;;;;;;;10.15;5.18;;;;;;;;;;5057458;28;20057;-80
2023/03/08 09:29:36;;;;;;;8.70;5.00;;;;;;;;;;5039168;28;20076;-79
2023/03/08 09:32:03;;;;;;;7.97;4.30;;;;;;;;;;5049671;28;20183;-81
2023/03/08 09:34:31;;;;;;;10.52;4.97;;;;;;;;;;5028516;28;20049;-80
2023/03/08 09:36:57;;;;;;;11.57;5.32;;;;;;;;;;5031651;28;20045;-78
2023/03/08 09:39:24;;;;;;;8.30;4.50;;;;;;;;;;5033607;28;20049;-79
2023/03/08 09:41:51;;;;;;;8.35;4.68;;;;;;;;;;5032593;28;20053;-79
2023/03/08 09:44:45;;;;;;;8.50;4.40;;;;;;;;;;5032991;28;20110;-79
2023/03/08 09:47:15;;;;;;;9.18;4.65;;;;;;;;;;5032510;28;20079;-78
2023/03/08 09:49:43;;;;;;;8.70;4.97;;;;;;;;;;5065121;28;20128;-78
2023/03/08 09:52:24;;;;;;;8.13;5.03;;;;;;;;;;5033031;28;20284;-78
2023/03/08 09:54:51;;;;;;;8.02;5.05;;;;;;;;;;5033273;28;20061;-78
2023/03/08 09:57:27;;;;;;;9.88;5.35;;;;;;;;;;5029310;28;20046;-78
2023/03/08 09:59:55;;;;;;;8.98;4.95;;;;;;;;;;5027761;28;20057;-78
2023/03/08 10:02:33;;;;;;;7.78;5.05;;;;;;;;;;5028091;28;20447;-78
2023/03/08 10:05:03;;;;;;;12.25;6.15;;;;;;;;;;5048782;28;20519;-78
2023/03/08 10:07:51;;;;;;;12.98;6.25;;;;;;;;;;5031703;28;20045;-79
2023/03/08 10:10:32;;;;;;;13.35;6.18;;;;;;;;;;5046296;28;20123;-78
2023/03/08 10:13:02;;;;;;;15.57;6.15;;;;;;;;;;5047063;28;20044;-78
2023/03/08 10:15:30;;;;;;;13.90;6.40;;;;;;;;;;5047418;28;20037;-78
2023/03/08 10:17:59;;;;;;;14.98;9.40;;;;;;;;;;5031394;28;20500;-78
2023/03/08 10:20:36;;;;;;;15.73;6.82;;;;;;;;;;5048237;28;20064;-78
2023/03/08 10:23:12;;;;;;;11.75;6.13;;;;;;;;;;5047566;28;20129;-78
2023/03/08 10:25:38;;;;;;;12.27;6.10;;;;;;;;;;5027976;28;20059;-79
2023/03/08 10:28:10;;;;;;;9.85;6.07;;;;;;;;;;5048405;28;20056;-78
2023/03/08 10:30:40;;;;;;;10.48;6.13;;;;;;;;;;5028979;28;20193;-79
2023/03/08 10:33:10;;;;;;;10.73;6.00;;;;;;;;;;5030087;28;20041;-80
2023/03/08 10:35:37;;;;;;;12.48;5.95;;;;;;;;;;5028797;28;20046;-78
2023/03/08 10:38:13;;;;;;;10.80;6.13;;;;;;;;;;5028867;28;20045;-79
2023/03/08 10:40:39;;;;;;;12.48;6.25;;;;;;;;;;5026091;28;20049;-78
2023/03/08 10:43:06;;;;;;;12.57;6.43;;;;;;;;;;5026614;28;20124;-79
2023/03/08 10:45:33;;;;;;;12.70;6.78;;;;;;;;;;5031189;28;20363;-78
2023/03/08 10:48:03;;;;;;;12.55;6.82;;;;;;;;;;5028309;28;20061;-79
2023/03/08 10:50:31;;;;;;;15.23;7.20;;;;;;;;;;5034668;28;20107;-80
2023/03/08 10:53:15;;;;;;;15.45;8.15;;;;;;;;;;5020358;28;20058;-79
2023/03/08 10:55:46;;;;;;;14.45;7.72;;;;;;;;;;5029382;28;20076;-80
2023/03/08 10:58:29;;;;;;;17.02;8.68;;;;;;;;;;5029788;28;20126;-80
2023/03/08 11:00:57;;;;;;;16.45;8.32;;;;;;;;;;5030511;28;20117;-79
2023/03/08 11:03:24;;;;;;;22.77;8.57;;;;;;;;;;5031347;28;20108;-80
2023/03/08 11:05:52;;;;;;;17.00;9.02;;;;;;;;;;5031308;28;20053;-79
2023/03/08 11:08:21;;;;;;;19.60;9.20;;;;;;;;;;5033408;28;20045;-79
2023/03/08 11:10:58;;;;;;;20.75;9.60;;;;;;;;;;5032091;28;20045;-79
2023/03/08 11:13:35;;;;;;;22.67;9.55;;;;;;;;;;5044413;28;20069;-79
2023/03/08 11:16:04;;;;;;;19.40;9.00;;;;;;;;;;5040374;28;20049;-78
2023/03/08 11:18:44;;;;;;;23.80;10.07;;;;;;;;;;5084300;28;20053;-80
2023/03/08 11:21:16;;;;;;;19.77;10.15;;;;;;;;;;5016239;28;20128;-80
2023/03/08 11:23:49;;;;;;;18.38;9.48;;;;;;;;;;5015517;28;20292;-79
2023/03/08 11:26:34;;;;;;;26.08;10.13;;;;;;;;;;5010496;28;20038;-79
2023/03/08 11:29:30;;;;;;;26.15;10.20;;;;;;;;;;5033869;28;20049;-79
2023/03/08 11:32:02;;;;;;;23.80;10.05;;;;;;;;;;5038135;28;20072;-79
2023/03/08 11:34:35;;;;;;;23.33;10.75;;;;;;;;;;5034846;28;20057;-79
2023/03/08 11:37:11;;;;;;;23.80;10.18;;;;;;;;;;5015039;28;20057;-79
2023/03/08 11:39:45;;;;;;;21.70;8.88;;;;;;;;;;5033461;28;20672;-80
2023/03/08 11:42:23;;;;;;;17.38;9.20;;;;;;;;;;5026949;28;20468;-80
2023/03/08 11:45:10;;;;;;;20.33;9.00;;;;;;;;;;5054761;28;20567;-79
2023/03/08 11:47:47;;;;;;;16.45;8.63;;;;;;;;;;5044404;28;20139;-80
2023/03/08 11:50:13;;;;;;;19.50;8.93;;;;;;;;;;5055948;28;20044;-80
2023/03/08 11:52:46;;;;;;;20.38;8.55;;;;;;;;;;5075458;28;20558;-79
2023/03/08 11:55:19;;;;;;;16.80;8.60;;;;;;;;;;5053286;28;20072;-78
2023/03/08 11:57:52;;;;;;;18.70;9.23;;;;;;;;;;5050330;28;20107;-78
2023/03/08 12:00:30;;;;;;;17.98;8.45;;;;;;;;;;5034413;28;20041;-77
2023/03/08 12:02:59;;;;;;;19.13;9.15;;;;;;;;;;5016986;28;20141;-78
2023/03/08 12:05:31;;;;;;;16.70;7.82;;;;;;;;;;5014507;28;20107;-78
2023/03/08 12:08:04;;;;;;;16.65;8.20;;;;;;;;;;4998122;28;20116;-79
2023/03/08 12:10:39;;;;;;;16.90;8.48;;;;;;;;;;5004177;28;20053;-79
2023/03/08 12:13:06;;;;;;;18.13;8.48;;;;;;;;;;5062558;28;20053;-79
2023/03/08 12:15:42;;;;;;;17.13;8.50;;;;;;;;;;5048192;28;20045;-79
2023/03/08 12:18:19;;;;;;;14.85;7.85;;;;;;;;;;5063947;28;20114;-79
2023/03/08 12:20:47;;;;;;;18.02;7.75;;;;;;;;;;5079339;28;20403;-79
2023/03/08 12:23:24;;;;;;;19.05;8.45;;;;;;;;;;5064302;28;20041;-78
2023/03/08 12:26:02;;;;;;;18.67;8.43;;;;;;;;;;5064078;28;20060;-79
2023/03/08 12:28:35;;;;;;;19.25;8.25;;;;;;;;;;5054776;28;20045;-79
2023/03/08 12:31:24;;;;;;;15.65;7.60;;;;;;;;;;5041069;28;20076;-79
2023/03/08 12:33:54;;;;;;;18.42;8.40;;;;;;;;;;5073119;28;20036;-79
2023/03/08 12:36:21;;;;;;;16.73;8.25;;;;;;;;;;5072137;28;20055;-80
2023/03/08 12:38:54;;;;;;;17.08;7.93;;;;;;;;;;5073212;28;20041;-80
2023/03/08 12:41:20;;;;;;;17.35;8.68;;;;;;;;;;5053003;28;20123;-80
2023/03/08 12:43:57;;;;;;;17.05;8.25;;;;;;;;;;5067908;28;20277;-79
2023/03/08 12:46:24;;;;;;;20.00;10.38;;;;;;;;;;5053745;28;20584;-79
2023/03/08 12:48:52;;;;;;;18.83;9.35;;;;;;;;;;5042549;28;20053;-80
2023/03/08 12:51:28;;;;;;;15.77;8.45;;;;;;;;;;5038545;28;20068;-80
2023/03/08 12:53:57;;;;;;;16.35;8.18;;;;;;;;;;5042613;28;20049;-79
2023/03/08 12:56:34;;;;;;;16.48;8.23;;;;;;;;;;5038399;28;20053;-79
2023/03/08 12:59:10;;;;;;;15.95;7.95;;;;;;;;;;5044629;28;20465;-80
2023/03/08 13:01:44;;;;;;;15.88;8.10;;;;;;;;;;5042509;28;20045;-80
2023/03/08 13:04:29;;;;;;;17.95;7.75;;;;;;;;;;5042119;28;20037;-79
2023/03/08 13:07:25;;;;;;;14.55;7.55;;;;;;;;;;5050511;28;20056;-80
2023/03/08 13:09:55;;;;;;;14.38;7.57;;;;;;;;;;5051072;28;20449;-80
2023/03/08 13:12:25;;;;;;;18.05;8.10;;;;;;;;;;5047492;28;20168;-79
2023/03/08 13:15:00;;;;;;;15.52;7.97;;;;;;;;;;5046402;28;20041;-78
2023/03/08 13:17:31;;;;;;;13.83;7.33;;;;;;;;;;5045201;28;20049;-79
2023/03/08 13:20:11;;;;;;;16.48;7.43;;;;;;;;;;5043286;28;20387;-79
2023/03/08 13:22:56;;;;;;;18.38;7.93;;;;;;;;;;5031910;28;20049;-79
2023/03/08 13:25:35;;;;;;;18.25;8.43;;;;;;;;;;5025182;28;20045;-79
2023/03/08 13:28:08;;;;;;;14.93;7.55;;;;;;;;;;5035880;28;20049;-79
2023/03/08 13:30:41;;;;;;;15.40;8.40;;;;;;;;;;5035559;28;20054;-78
2023/03/08 13:33:11;;;;;;;18.45;8.30;;;;;;;;;;5045468;28;20049;-78
2023/03/08 13:35:37;;;;;;;13.23;7.20;;;;;;;;;;5064351;28;20048;-79
2023/03/08 13:38:04;;;;;;;15.30;6.88;;;;;;;;;;5059206;28;20055;-79
2023/03/08 13:40:31;;;;;;;12.65;6.43;;;;;;;;;;5052999;28;20055;-79
2023/03/08 13:42:58;;;;;;;14.15;7.30;;;;;;;;;;5052605;28;20083;-79
2023/03/08 13:45:25;;;;;;;13.77;7.03;;;;;;;;;;5053791;28;20127;-79
2023/03/08 13:47:53;;;;;;;11.90;6.47;;;;;;;;;;5034266;28;20501;-80
2023/03/08 13:50:29;;;;;;;12.32;6.20;;;;;;;;;;5030013;28;20041;-79
2023/03/08 13:52:55;;;;;;;12.93;6.72;;;;;;;;;;5049519;28;20121;-78
2023/03/08 13:55:26;;;;;;;16.58;6.53;;;;;;;;;;5042432;28;20049;-78
2023/03/08 13:57:55;;;;;;;21.13;7.47;;;;;;;;;;5028649;28;20057;-79
2023/03/08 14:00:24;;;;;;;14.80;7.35;;;;;;;;;;5032661;28;20068;-80
2023/03/08 14:02:51;;;;;;;14.93;8.20;;;;;;;;;;5031945;28;20299;-79
2023/03/08 14:05:21;;;;;;;16.30;8.13;;;;;;;;;;5032839;28;20049;-79
2023/03/08 14:08:02;;;;;;;17.00;8.68;;;;;;;;;;5033792;28;20238;-80
2023/03/08 14:10:33;;;;;;;17.88;9.52;;;;;;;;;;5060786;28;20140;-79
2023/03/08 14:13:00;;;;;;;17.70;8.82;;;;;;;;;;5027464;28;20115;-79
2023/03/08 14:15:36;;;;;;;17.40;9.15;;;;;;;;;;5029580;28;20041;-79
2023/03/08 14:18:03;;;;;;;17.23;9.07;;;;;;;;;;5037961;28;20421;-79
2023/03/08 14:20:30;;;;;;;18.45;10.25;;;;;;;;;;5030861;28;20171;-79
2023/03/08 14:22:57;;;;;;;19.50;10.60;;;;;;;;;;5049682;28;20497;-78
2023/03/08 14:25:28;;;;;;;20.98;10.20;;;;;;;;;;5058541;28;20131;-79
2023/03/08 14:27:55;;;;;;;18.63;10.70;;;;;;;;;;5030987;28;20053;-76
2023/03/08 14:30:28;;;;;;;19.60;11.00;;;;;;;;;;5037486;28;20049;-77
2023/03/08 14:32:57;;;;;;;21.33;11.20;;;;;;;;;;5051266;28;20362;-79
2023/03/08 14:35:25;;;;;;;20.83;10.93;;;;;;;;;;5048925;28;20037;-79
2023/03/08 14:37:55;;;;;;;23.20;11.73;;;;;;;;;;5049773;28;20568;-79
2023/03/08 14:40:23;;;;;;;22.00;11.60;;;;;;;;;;5049107;28;20053;-79
2023/03/08 14:43:01;;;;;;;22.17;11.68;;;;;;;;;;5049076;28;20083;-79
2023/03/08 14:45:27;;;;;;;;;;;;;;;;;;5052189;28;20119;-79